sensor_id;sensor_type;location;lat;lon;timestamp;P1;durP1;ratioP1;P2;durP2;ratioP2
59788;SDS011;47353;51.614;5.530;2023-03-26T00:00:40;36.58;;;7.50;;
59788;SDS011;47353;51.614;5.530;2023-03-26T00:03:07;39.38;;;7.28;;
59788;SDS011;47353;51.614;5.530;2023-03-26T00:05:34;29.35;;;7.40;;
59788;SDS011;47353;51.614;5.530;2023-03-26T00:08:00;45.20;;;7.40;;
59788;SDS011;47353;51.614;5.530;2023-03-26T00:10:25;35.65;;;6.88;;
59788;SDS011;47353;51.614;5.530;2023-03-26T00:12:50;41.30;;;7.32;;
59788;SDS011;47353;51.614;5.530;2023-03-26T00:15:16;32.38;;;6.53;;
59788;SDS011;47353;51.614;5.530;2023-03-26T00:17:41;38.53;;;7.15;;
59788;SDS011;47353;51.614;5.530;2023-03-26T00:20:10;37.25;;;7.85;;
59788;SDS011;47353;51.614;5.530;2023-03-26T00:22:37;36.13;;;6.15;;
59788;SDS011;47353;51.614;5.530;2023-03-26T00:25:03;34.58;;;6.47;;
59788;SDS011;47353;51.614;5.530;2023-03-26T00:27:30;33.28;;;6.57;;
59788;SDS011;47353;51.614;5.530;2023-03-26T00:29:56;31.67;;;6.55;;
59788;SDS011;47353;51.614;5.530;2023-03-26T00:32:23;36.95;;;6.40;;
59788;SDS011;47353;51.614;5.530;2023-03-26T00:34:53;38.15;;;6.30;;
59788;SDS011;47353;51.614;5.530;2023-03-26T00:37:20;39.70;;;6.35;;
59788;SDS011;47353;51.614;5.530;2023-03-26T00:39:51;35.90;;;5.82;;
59788;SDS011;47353;51.614;5.530;2023-03-26T00:42:17;38.72;;;7.45;;
59788;SDS011;47353;51.614;5.530;2023-03-26T00:44:42;36.67;;;6.40;;
59788;SDS011;47353;51.614;5.530;2023-03-26T00:47:08;30.08;;;6.35;;
59788;SDS011;47353;51.614;5.530;2023-03-26T00:49:33;35.28;;;5.85;;
59788;SDS011;47353;51.614;5.530;2023-03-26T00:51:59;38.85;;;6.38;;
59788;SDS011;47353;51.614;5.530;2023-03-26T00:54:26;43.33;;;5.72;;
59788;SDS011;47353;51.614;5.530;2023-03-26T00:56:52;32.70;;;6.03;;
59788;SDS011;47353;51.614;5.530;2023-03-26T00:59:20;34.15;;;5.28;;
59788;SDS011;47353;51.614;5.530;2023-03-26T01:01:46;35.05;;;7.50;;
59788;SDS011;47353;51.614;5.530;2023-03-26T01:04:28;33.70;;;5.68;;
59788;SDS011;47353;51.614;5.530;2023-03-26T01:07:00;29.25;;;5.60;;
59788;SDS011;47353;51.614;5.530;2023-03-26T01:09:33;31.98;;;5.78;;
59788;SDS011;47353;51.614;5.530;2023-03-26T01:12:01;37.42;;;5.82;;
59788;SDS011;47353;51.614;5.530;2023-03-26T01:14:28;33.85;;;4.82;;
59788;SDS011;47353;51.614;5.530;2023-03-26T01:16:55;37.60;;;5.65;;
59788;SDS011;47353;51.614;5.530;2023-03-26T01:22:05;34.72;;;5.25;;
59788;SDS011;47353;51.614;5.530;2023-03-26T01:24:35;35.38;;;5.97;;
59788;SDS011;47353;51.614;5.530;2023-03-26T01:27:10;37.60;;;5.57;;
59788;SDS011;47353;51.614;5.530;2023-03-26T01:29:47;34.28;;;5.32;;
59788;SDS011;47353;51.614;5.530;2023-03-26T01:35:23;35.22;;;5.97;;
59788;SDS011;47353;51.614;5.530;2023-03-26T01:43:53;22.88;;;4.68;;
59788;SDS011;47353;51.614;5.530;2023-03-26T01:46:27;29.05;;;5.35;;
59788;SDS011;47353;51.614;5.530;2023-03-26T01:49:00;35.45;;;4.75;;
59788;SDS011;47353;51.614;5.530;2023-03-26T01:51:32;29.63;;;5.10;;
59788;SDS011;47353;51.614;5.530;2023-03-26T01:54:03;32.20;;;4.97;;
59788;SDS011;47353;51.614;5.530;2023-03-26T02:01:56;30.95;;;5.00;;
59788;SDS011;47353;51.614;5.530;2023-03-26T02:04:33;28.50;;;4.93;;
59788;SDS011;47353;51.614;5.530;2023-03-26T02:10:00;30.23;;;4.15;;
59788;SDS011;47353;51.614;5.530;2023-03-26T02:12:30;38.65;;;5.63;;
59788;SDS011;47353;51.614;5.530;2023-03-26T02:15:00;33.00;;;4.53;;
59788;SDS011;47353;51.614;5.530;2023-03-26T02:17:25;28.30;;;5.10;;
59788;SDS011;47353;51.614;5.530;2023-03-26T02:19:54;35.10;;;5.32;;
59788;SDS011;47353;51.614;5.530;2023-03-26T02:22:20;28.83;;;4.60;;
59788;SDS011;47353;51.614;5.530;2023-03-26T02:24:46;33.15;;;5.32;;
59788;SDS011;47353;51.614;5.530;2023-03-26T02:27:12;27.10;;;4.65;;
59788;SDS011;47353;51.614;5.530;2023-03-26T02:29:42;31.83;;;4.75;;
59788;SDS011;47353;51.614;5.530;2023-03-26T02:32:09;34.90;;;5.97;;
59788;SDS011;47353;51.614;5.530;2023-03-26T02:34:40;29.70;;;4.18;;
59788;SDS011;47353;51.614;5.530;2023-03-26T02:37:07;35.78;;;4.97;;
59788;SDS011;47353;51.614;5.530;2023-03-26T02:39:33;30.50;;;4.70;;
59788;SDS011;47353;51.614;5.530;2023-03-26T02:41:59;32.35;;;4.85;;
59788;SDS011;47353;51.614;5.530;2023-03-26T02:44:25;32.00;;;4.93;;
59788;SDS011;47353;51.614;5.530;2023-03-26T02:46:51;32.35;;;4.90;;
59788;SDS011;47353;51.614;5.530;2023-03-26T02:49:16;30.55;;;4.47;;
59788;SDS011;47353;51.614;5.530;2023-03-26T02:51:42;38.17;;;5.45;;
59788;SDS011;47353;51.614;5.530;2023-03-26T02:54:07;27.08;;;4.03;;
59788;SDS011;47353;51.614;5.530;2023-03-26T02:56:33;29.33;;;5.00;;
59788;SDS011;47353;51.614;5.530;2023-03-26T02:58:58;34.60;;;5.45;;
59788;SDS011;47353;51.614;5.530;2023-03-26T03:01:23;37.33;;;4.93;;
59788;SDS011;47353;51.614;5.530;2023-03-26T03:03:49;38.58;;;5.63;;
59788;SDS011;47353;51.614;5.530;2023-03-26T03:06:15;24.42;;;4.82;;
59788;SDS011;47353;51.614;5.530;2023-03-26T03:08:43;32.78;;;5.32;;
59788;SDS011;47353;51.614;5.530;2023-03-26T03:11:13;32.97;;;5.47;;
59788;SDS011;47353;51.614;5.530;2023-03-26T03:13:41;29.83;;;5.28;;
59788;SDS011;47353;51.614;5.530;2023-03-26T03:16:08;28.23;;;5.68;;
59788;SDS011;47353;51.614;5.530;2023-03-26T03:18:34;36.03;;;5.63;;
59788;SDS011;47353;51.614;5.530;2023-03-26T03:20:59;34.95;;;5.30;;
59788;SDS011;47353;51.614;5.530;2023-03-26T03:23:26;26.27;;;4.65;;
59788;SDS011;47353;51.614;5.530;2023-03-26T03:25:51;30.08;;;4.38;;
59788;SDS011;47353;51.614;5.530;2023-03-26T03:28:17;32.38;;;4.72;;
59788;SDS011;47353;51.614;5.530;2023-03-26T03:30:43;26.92;;;4.45;;
59788;SDS011;47353;51.614;5.530;2023-03-26T03:33:09;25.33;;;4.40;;
59788;SDS011;47353;51.614;5.530;2023-03-26T03:35:37;31.23;;;5.15;;
59788;SDS011;47353;51.614;5.530;2023-03-26T03:38:03;31.25;;;5.05;;
59788;SDS011;47353;51.614;5.530;2023-03-26T03:40:29;28.15;;;4.45;;
59788;SDS011;47353;51.614;5.530;2023-03-26T03:42:55;29.58;;;5.28;;
59788;SDS011;47353;51.614;5.530;2023-03-26T03:45:21;27.55;;;4.65;;
59788;SDS011;47353;51.614;5.530;2023-03-26T03:47:46;21.92;;;4.15;;
59788;SDS011;47353;51.614;5.530;2023-03-26T03:50:11;28.38;;;4.40;;
59788;SDS011;47353;51.614;5.530;2023-03-26T03:52:37;28.27;;;4.60;;
59788;SDS011;47353;51.614;5.530;2023-03-26T03:55:02;26.27;;;4.13;;
59788;SDS011;47353;51.614;5.530;2023-03-26T03:57:28;21.55;;;4.40;;
59788;SDS011;47353;51.614;5.530;2023-03-26T03:59:55;24.42;;;4.43;;
59788;SDS011;47353;51.614;5.530;2023-03-26T04:02:24;28.17;;;4.25;;
59788;SDS011;47353;51.614;5.530;2023-03-26T04:04:54;22.38;;;3.70;;
59788;SDS011;47353;51.614;5.530;2023-03-26T04:07:21;24.25;;;3.83;;
59788;SDS011;47353;51.614;5.530;2023-03-26T04:09:50;27.95;;;4.63;;
59788;SDS011;47353;51.614;5.530;2023-03-26T04:12:16;20.02;;;3.85;;
59788;SDS011;47353;51.614;5.530;2023-03-26T04:14:41;21.27;;;3.25;;
59788;SDS011;47353;51.614;5.530;2023-03-26T04:17:07;22.27;;;4.00;;
59788;SDS011;47353;51.614;5.530;2023-03-26T04:19:33;20.65;;;3.90;;
59788;SDS011;47353;51.614;5.530;2023-03-26T04:21:58;19.48;;;4.22;;
59788;SDS011;47353;51.614;5.530;2023-03-26T04:24:30;15.68;;;3.75;;
59788;SDS011;47353;51.614;5.530;2023-03-26T04:27:02;21.67;;;4.15;;
59788;SDS011;47353;51.614;5.530;2023-03-26T04:29:30;19.50;;;3.60;;
59788;SDS011;47353;51.614;5.530;2023-03-26T04:32:02;16.90;;;3.20;;
59788;SDS011;47353;51.614;5.530;2023-03-26T04:34:31;19.75;;;3.63;;
59788;SDS011;47353;51.614;5.530;2023-03-26T04:36:58;22.20;;;3.63;;
59788;SDS011;47353;51.614;5.530;2023-03-26T04:39:24;18.20;;;3.20;;
59788;SDS011;47353;51.614;5.530;2023-03-26T04:41:53;17.67;;;3.20;;
59788;SDS011;47353;51.614;5.530;2023-03-26T04:44:19;17.38;;;3.28;;
59788;SDS011;47353;51.614;5.530;2023-03-26T04:46:46;17.48;;;3.50;;
59788;SDS011;47353;51.614;5.530;2023-03-26T04:49:16;16.83;;;3.53;;
59788;SDS011;47353;51.614;5.530;2023-03-26T04:51:42;18.65;;;3.78;;
59788;SDS011;47353;51.614;5.530;2023-03-26T04:54:10;17.60;;;3.13;;
59788;SDS011;47353;51.614;5.530;2023-03-26T04:59:22;13.10;;;3.00;;
59788;SDS011;47353;51.614;5.530;2023-03-26T05:01:51;22.83;;;3.40;;
59788;SDS011;47353;51.614;5.530;2023-03-26T05:04:17;22.90;;;3.83;;
59788;SDS011;47353;51.614;5.530;2023-03-26T05:06:42;19.17;;;3.58;;
59788;SDS011;47353;51.614;5.530;2023-03-26T05:09:07;16.85;;;3.55;;
59788;SDS011;47353;51.614;5.530;2023-03-26T05:11:34;20.73;;;3.70;;
59788;SDS011;47353;51.614;5.530;2023-03-26T05:14:00;14.55;;;3.25;;
59788;SDS011;47353;51.614;5.530;2023-03-26T05:16:26;14.55;;;3.33;;
59788;SDS011;47353;51.614;5.530;2023-03-26T05:18:52;17.67;;;3.42;;
59788;SDS011;47353;51.614;5.530;2023-03-26T05:21:18;15.40;;;3.50;;
59788;SDS011;47353;51.614;5.530;2023-03-26T05:23:44;15.93;;;3.10;;
59788;SDS011;47353;51.614;5.530;2023-03-26T05:26:09;18.13;;;3.50;;
59788;SDS011;47353;51.614;5.530;2023-03-26T05:28:35;15.45;;;3.38;;
59788;SDS011;47353;51.614;5.530;2023-03-26T05:31:01;14.57;;;3.63;;
59788;SDS011;47353;51.614;5.530;2023-03-26T05:33:26;19.70;;;3.85;;
59788;SDS011;47353;51.614;5.530;2023-03-26T05:36:05;16.77;;;4.18;;
59788;SDS011;47353;51.614;5.530;2023-03-26T05:38:33;20.17;;;4.00;;
59788;SDS011;47353;51.614;5.530;2023-03-26T05:41:00;25.42;;;4.10;;
59788;SDS011;47353;51.614;5.530;2023-03-26T05:43:28;18.20;;;4.22;;
59788;SDS011;47353;51.614;5.530;2023-03-26T05:45:54;18.23;;;3.60;;
59788;SDS011;47353;51.614;5.530;2023-03-26T05:48:20;18.88;;;4.20;;
59788;SDS011;47353;51.614;5.530;2023-03-26T05:50:47;23.02;;;3.90;;
59788;SDS011;47353;51.614;5.530;2023-03-26T05:53:13;23.23;;;3.70;;
59788;SDS011;47353;51.614;5.530;2023-03-26T05:55:38;17.85;;;3.92;;
59788;SDS011;47353;51.614;5.530;2023-03-26T05:58:04;26.92;;;4.28;;
59788;SDS011;47353;51.614;5.530;2023-03-26T06:00:30;22.42;;;4.00;;
59788;SDS011;47353;51.614;5.530;2023-03-26T06:02:57;22.95;;;4.45;;
59788;SDS011;47353;51.614;5.530;2023-03-26T06:05:23;20.77;;;3.70;;
59788;SDS011;47353;51.614;5.530;2023-03-26T06:07:50;16.02;;;4.03;;
59788;SDS011;47353;51.614;5.530;2023-03-26T06:10:15;24.20;;;3.75;;
59788;SDS011;47353;51.614;5.530;2023-03-26T06:12:41;17.50;;;4.22;;
59788;SDS011;47353;51.614;5.530;2023-03-26T06:15:07;17.98;;;4.03;;
59788;SDS011;47353;51.614;5.530;2023-03-26T06:17:33;21.15;;;3.83;;
59788;SDS011;47353;51.614;5.530;2023-03-26T06:19:59;19.77;;;4.85;;
59788;SDS011;47353;51.614;5.530;2023-03-26T06:22:24;19.00;;;4.10;;
59788;SDS011;47353;51.614;5.530;2023-03-26T06:24:50;19.13;;;4.03;;
59788;SDS011;47353;51.614;5.530;2023-03-26T06:27:16;17.50;;;4.18;;
59788;SDS011;47353;51.614;5.530;2023-03-26T06:29:42;23.10;;;3.80;;
59788;SDS011;47353;51.614;5.530;2023-03-26T06:32:07;20.73;;;4.22;;
59788;SDS011;47353;51.614;5.530;2023-03-26T06:34:33;17.50;;;3.90;;
59788;SDS011;47353;51.614;5.530;2023-03-26T06:36:58;15.48;;;4.13;;
59788;SDS011;47353;51.614;5.530;2023-03-26T06:39:23;22.70;;;4.22;;
59788;SDS011;47353;51.614;5.530;2023-03-26T06:41:50;19.25;;;4.40;;
59788;SDS011;47353;51.614;5.530;2023-03-26T06:44:15;18.33;;;4.10;;
59788;SDS011;47353;51.614;5.530;2023-03-26T06:46:40;20.92;;;3.63;;
59788;SDS011;47353;51.614;5.530;2023-03-26T06:49:06;18.95;;;3.88;;
59788;SDS011;47353;51.614;5.530;2023-03-26T06:51:31;16.45;;;4.68;;
59788;SDS011;47353;51.614;5.530;2023-03-26T06:53:57;22.52;;;4.28;;
59788;SDS011;47353;51.614;5.530;2023-03-26T06:56:22;18.67;;;4.10;;
59788;SDS011;47353;51.614;5.530;2023-03-26T06:58:47;17.85;;;4.50;;
59788;SDS011;47353;51.614;5.530;2023-03-26T07:01:13;18.90;;;4.32;;
59788;SDS011;47353;51.614;5.530;2023-03-26T07:03:38;19.27;;;4.07;;
59788;SDS011;47353;51.614;5.530;2023-03-26T07:06:04;14.95;;;4.00;;
59788;SDS011;47353;51.614;5.530;2023-03-26T07:08:29;16.73;;;3.65;;
59788;SDS011;47353;51.614;5.530;2023-03-26T07:10:55;15.23;;;3.63;;
59788;SDS011;47353;51.614;5.530;2023-03-26T07:13:21;18.80;;;4.25;;
59788;SDS011;47353;51.614;5.530;2023-03-26T07:15:46;15.30;;;3.90;;
59788;SDS011;47353;51.614;5.530;2023-03-26T07:18:12;15.45;;;3.47;;
59788;SDS011;47353;51.614;5.530;2023-03-26T07:20:38;18.58;;;3.80;;
59788;SDS011;47353;51.614;5.530;2023-03-26T07:23:03;18.20;;;4.10;;
59788;SDS011;47353;51.614;5.530;2023-03-26T07:25:29;18.30;;;3.72;;
59788;SDS011;47353;51.614;5.530;2023-03-26T07:38:45;16.17;;;3.90;;
59788;SDS011;47353;51.614;5.530;2023-03-26T07:41:15;17.63;;;3.95;;
59788;SDS011;47353;51.614;5.530;2023-03-26T07:44:20;19.20;;;4.10;;
59788;SDS011;47353;51.614;5.530;2023-03-26T07:47:01;19.52;;;4.50;;
59788;SDS011;47353;51.614;5.530;2023-03-26T07:49:42;14.35;;;4.55;;
59788;SDS011;47353;51.614;5.530;2023-03-26T07:52:09;15.30;;;4.47;;
59788;SDS011;47353;51.614;5.530;2023-03-26T07:54:35;15.43;;;4.88;;
59788;SDS011;47353;51.614;5.530;2023-03-26T07:57:02;17.83;;;4.80;;
59788;SDS011;47353;51.614;5.530;2023-03-26T07:59:43;15.98;;;5.47;;
59788;SDS011;47353;51.614;5.530;2023-03-26T08:11:08;18.33;;;4.88;;
59788;SDS011;47353;51.614;5.530;2023-03-26T08:14:10;18.95;;;5.28;;
59788;SDS011;47353;51.614;5.530;2023-03-26T08:19:42;19.77;;;5.70;;
59788;SDS011;47353;51.614;5.530;2023-03-26T08:27:42;14.97;;;6.00;;
59788;SDS011;47353;51.614;5.530;2023-03-26T08:30:31;17.67;;;5.30;;
59788;SDS011;47353;51.614;5.530;2023-03-26T08:32:58;16.40;;;5.82;;
59788;SDS011;47353;51.614;5.530;2023-03-26T08:35:28;13.77;;;5.38;;
59788;SDS011;47353;51.614;5.530;2023-03-26T08:37:54;18.83;;;5.80;;
59788;SDS011;47353;51.614;5.530;2023-03-26T08:40:45;14.27;;;5.35;;
59788;SDS011;47353;51.614;5.530;2023-03-26T08:57:45;10.88;;;4.57;;
59788;SDS011;47353;51.614;5.530;2023-03-26T09:03:30;14.27;;;5.22;;
59788;SDS011;47353;51.614;5.530;2023-03-26T09:12:25;12.88;;;4.60;;
59788;SDS011;47353;51.614;5.530;2023-03-26T09:36:52;14.32;;;3.90;;
59788;SDS011;47353;51.614;5.530;2023-03-26T09:42:22;6.93;;;2.95;;
59788;SDS011;47353;51.614;5.530;2023-03-26T09:50:20;7.60;;;3.40;;
59788;SDS011;47353;51.614;5.530;2023-03-26T09:55:43;11.10;;;4.72;;
59788;SDS011;47353;51.614;5.530;2023-03-26T10:01:19;7.10;;;3.25;;
59788;SDS011;47353;51.614;5.530;2023-03-26T10:04:30;9.27;;;3.40;;
59788;SDS011;47353;51.614;5.530;2023-03-26T10:07:16;8.00;;;3.28;;
59788;SDS011;47353;51.614;5.530;2023-03-26T10:12:49;6.10;;;2.70;;
59788;SDS011;47353;51.614;5.530;2023-03-26T10:15:26;5.30;;;2.50;;
59788;SDS011;47353;51.614;5.530;2023-03-26T10:28:38;11.73;;;4.82;;
59788;SDS011;47353;51.614;5.530;2023-03-26T10:33:53;5.57;;;3.05;;
59788;SDS011;47353;51.614;5.530;2023-03-26T10:46:03;5.90;;;2.00;;
59788;SDS011;47353;51.614;5.530;2023-03-26T10:59:59;3.28;;;1.55;;
59788;SDS011;47353;51.614;5.530;2023-03-26T11:02:32;4.37;;;2.00;;
59788;SDS011;47353;51.614;5.530;2023-03-26T11:08:01;3.35;;;1.90;;
59788;SDS011;47353;51.614;5.530;2023-03-26T11:10:37;3.97;;;1.63;;
59788;SDS011;47353;51.614;5.530;2023-03-26T11:13:21;3.78;;;1.60;;
59788;SDS011;47353;51.614;5.530;2023-03-26T11:16:04;4.13;;;1.70;;
59788;SDS011;47353;51.614;5.530;2023-03-26T11:18:43;4.63;;;1.52;;
59788;SDS011;47353;51.614;5.530;2023-03-26T11:21:23;3.20;;;1.63;;
59788;SDS011;47353;51.614;5.530;2023-03-26T11:32:10;5.13;;;2.00;;
59788;SDS011;47353;51.614;5.530;2023-03-26T11:37:39;4.90;;;2.00;;
59788;SDS011;47353;51.614;5.530;2023-03-26T11:40:41;4.32;;;2.00;;
59788;SDS011;47353;51.614;5.530;2023-03-26T11:43:12;4.07;;;2.20;;
59788;SDS011;47353;51.614;5.530;2023-03-26T11:45:40;4.43;;;1.63;;
59788;SDS011;47353;51.614;5.530;2023-03-26T11:48:13;3.30;;;1.95;;
59788;SDS011;47353;51.614;5.530;2023-03-26T11:50:44;5.80;;;2.28;;
59788;SDS011;47353;51.614;5.530;2023-03-26T11:53:15;4.22;;;2.42;;
59788;SDS011;47353;51.614;5.530;2023-03-26T11:55:45;6.35;;;2.55;;
59788;SDS011;47353;51.614;5.530;2023-03-26T11:58:23;5.68;;;3.10;;
59788;SDS011;47353;51.614;5.530;2023-03-26T12:00:55;6.50;;;3.10;;
59788;SDS011;47353;51.614;5.530;2023-03-26T12:03:21;5.28;;;3.33;;
59788;SDS011;47353;51.614;5.530;2023-03-26T12:05:47;5.95;;;3.28;;
59788;SDS011;47353;51.614;5.530;2023-03-26T12:08:20;4.45;;;3.20;;
59788;SDS011;47353;51.614;5.530;2023-03-26T12:11:26;6.90;;;3.25;;
59788;SDS011;47353;51.614;5.530;2023-03-26T12:13:54;8.13;;;3.40;;
59788;SDS011;47353;51.614;5.530;2023-03-26T12:16:26;5.13;;;3.22;;
59788;SDS011;47353;51.614;5.530;2023-03-26T12:21:26;6.15;;;3.88;;
59788;SDS011;47353;51.614;5.530;2023-03-26T12:29:10;6.50;;;3.55;;
59788;SDS011;47353;51.614;5.530;2023-03-26T12:31:44;6.75;;;2.83;;
59788;SDS011;47353;51.614;5.530;2023-03-26T12:34:16;4.72;;;2.60;;
59788;SDS011;47353;51.614;5.530;2023-03-26T12:36:51;4.75;;;2.50;;
59788;SDS011;47353;51.614;5.530;2023-03-26T12:39:26;3.90;;;2.67;;
59788;SDS011;47353;51.614;5.530;2023-03-26T12:42:03;5.00;;;2.30;;
59788;SDS011;47353;51.614;5.530;2023-03-26T12:44:35;4.35;;;2.50;;
59788;SDS011;47353;51.614;5.530;2023-03-26T12:47:13;4.82;;;2.35;;
59788;SDS011;47353;51.614;5.530;2023-03-26T12:49:43;4.97;;;2.42;;
59788;SDS011;47353;51.614;5.530;2023-03-26T13:08:53;2.83;;;1.95;;
59788;SDS011;47353;51.614;5.530;2023-03-26T13:11:48;4.25;;;2.13;;
59788;SDS011;47353;51.614;5.530;2023-03-26T13:14:37;5.80;;;2.40;;
59788;SDS011;47353;51.614;5.530;2023-03-26T13:17:12;3.85;;;2.20;;
59788;SDS011;47353;51.614;5.530;2023-03-26T13:25:00;3.88;;;1.90;;
59788;SDS011;47353;51.614;5.530;2023-03-26T13:30:12;3.45;;;2.53;;
59788;SDS011;47353;51.614;5.530;2023-03-26T13:41:03;8.40;;;4.65;;
59788;SDS011;47353;51.614;5.530;2023-03-26T13:48:53;8.68;;;5.45;;
59788;SDS011;47353;51.614;5.530;2023-03-26T13:51:22;9.45;;;5.82;;
59788;SDS011;47353;51.614;5.530;2023-03-26T13:53:54;10.23;;;6.22;;
59788;SDS011;47353;51.614;5.530;2023-03-26T13:56:25;11.68;;;6.60;;
59788;SDS011;47353;51.614;5.530;2023-03-26T14:02:10;14.70;;;6.68;;
59788;SDS011;47353;51.614;5.530;2023-03-26T14:04:45;17.15;;;7.25;;
59788;SDS011;47353;51.614;5.530;2023-03-26T14:07:24;17.55;;;7.10;;
59788;SDS011;47353;51.614;5.530;2023-03-26T14:17:58;17.23;;;5.45;;
59788;SDS011;47353;51.614;5.530;2023-03-26T14:23:40;16.67;;;5.85;;
59788;SDS011;47353;51.614;5.530;2023-03-26T14:40:27;10.48;;;4.22;;
59788;SDS011;47353;51.614;5.530;2023-03-26T14:54:08;16.60;;;4.10;;
59788;SDS011;47353;51.614;5.530;2023-03-26T15:08:00;12.15;;;3.65;;
59788;SDS011;47353;51.614;5.530;2023-03-26T15:13:22;15.63;;;3.80;;
59788;SDS011;47353;51.614;5.530;2023-03-26T15:18:45;13.88;;;3.92;;
59788;SDS011;47353;51.614;5.530;2023-03-26T15:46:30;14.68;;;4.45;;
59788;SDS011;47353;51.614;5.530;2023-03-26T15:49:15;16.55;;;4.18;;
59788;SDS011;47353;51.614;5.530;2023-03-26T15:59:55;14.75;;;4.35;;
59788;SDS011;47353;51.614;5.530;2023-03-26T16:02:49;17.00;;;4.10;;
59788;SDS011;47353;51.614;5.530;2023-03-26T16:05:26;15.70;;;3.67;;
59788;SDS011;47353;51.614;5.530;2023-03-26T16:08:11;13.55;;;3.88;;
59788;SDS011;47353;51.614;5.530;2023-03-26T16:10:50;14.50;;;3.55;;
59788;SDS011;47353;51.614;5.530;2023-03-26T16:13:23;15.43;;;3.53;;
59788;SDS011;47353;51.614;5.530;2023-03-26T16:18:24;15.57;;;3.00;;
59788;SDS011;47353;51.614;5.530;2023-03-26T16:33:37;13.57;;;3.03;;
59788;SDS011;47353;51.614;5.530;2023-03-26T16:41:29;11.57;;;2.50;;
59788;SDS011;47353;51.614;5.530;2023-03-26T16:50:15;12.55;;;2.80;;
59788;SDS011;47353;51.614;5.530;2023-03-26T16:55:57;16.75;;;2.92;;
59788;SDS011;47353;51.614;5.530;2023-03-26T17:04:23;12.27;;;2.85;;
59788;SDS011;47353;51.614;5.530;2023-03-26T17:07:15;14.40;;;3.10;;
59788;SDS011;47353;51.614;5.530;2023-03-26T17:18:11;16.92;;;3.50;;
59788;SDS011;47353;51.614;5.530;2023-03-26T17:20:52;18.15;;;3.30;;
59788;SDS011;47353;51.614;5.530;2023-03-26T17:31:39;12.57;;;2.95;;
59788;SDS011;47353;51.614;5.530;2023-03-26T17:36:56;14.25;;;2.97;;
59788;SDS011;47353;51.614;5.530;2023-03-26T17:49:50;8.95;;;2.60;;
59788;SDS011;47353;51.614;5.530;2023-03-26T17:54:50;16.38;;;3.00;;
59788;SDS011;47353;51.614;5.530;2023-03-26T17:59:48;13.52;;;2.30;;
59788;SDS011;47353;51.614;5.530;2023-03-26T18:02:17;13.25;;;2.50;;
59788;SDS011;47353;51.614;5.530;2023-03-26T18:04:50;8.82;;;2.58;;
59788;SDS011;47353;51.614;5.530;2023-03-26T18:08:01;10.93;;;2.78;;
59788;SDS011;47353;51.614;5.530;2023-03-26T18:13:20;9.82;;;2.58;;
59788;SDS011;47353;51.614;5.530;2023-03-26T18:18:35;10.73;;;2.60;;
59788;SDS011;47353;51.614;5.530;2023-03-26T18:21:07;12.70;;;2.55;;
59788;SDS011;47353;51.614;5.530;2023-03-26T18:23:43;8.75;;;2.42;;
59788;SDS011;47353;51.614;5.530;2023-03-26T18:26:18;9.15;;;2.42;;
59788;SDS011;47353;51.614;5.530;2023-03-26T18:29:07;9.80;;;2.20;;
59788;SDS011;47353;51.614;5.530;2023-03-26T18:31:33;11.95;;;2.38;;
59788;SDS011;47353;51.614;5.530;2023-03-26T18:34:01;7.88;;;2.03;;
59788;SDS011;47353;51.614;5.530;2023-03-26T18:36:35;10.38;;;2.00;;
59788;SDS011;47353;51.614;5.530;2023-03-26T18:39:02;9.57;;;2.40;;
59788;SDS011;47353;51.614;5.530;2023-03-26T18:44:02;10.02;;;2.17;;
59788;SDS011;47353;51.614;5.530;2023-03-26T18:46:30;9.77;;;2.10;;
59788;SDS011;47353;51.614;5.530;2023-03-26T18:48:57;10.57;;;2.33;;
59788;SDS011;47353;51.614;5.530;2023-03-26T18:51:24;9.38;;;2.38;;
59788;SDS011;47353;51.614;5.530;2023-03-26T18:53:52;8.57;;;2.03;;
59788;SDS011;47353;51.614;5.530;2023-03-26T18:56:40;6.90;;;1.92;;
59788;SDS011;47353;51.614;5.530;2023-03-26T18:59:21;7.93;;;1.98;;
59788;SDS011;47353;51.614;5.530;2023-03-26T19:01:56;6.82;;;1.75;;
59788;SDS011;47353;51.614;5.530;2023-03-26T19:04:24;10.52;;;2.05;;
59788;SDS011;47353;51.614;5.530;2023-03-26T19:06:51;9.15;;;2.42;;
59788;SDS011;47353;51.614;5.530;2023-03-26T19:09:18;8.38;;;2.15;;
59788;SDS011;47353;51.614;5.530;2023-03-26T19:11:47;8.35;;;2.15;;
59788;SDS011;47353;51.614;5.530;2023-03-26T19:14:23;13.23;;;1.80;;
59788;SDS011;47353;51.614;5.530;2023-03-26T19:16:59;8.57;;;1.95;;
59788;SDS011;47353;51.614;5.530;2023-03-26T19:19:30;10.15;;;2.13;;
59788;SDS011;47353;51.614;5.530;2023-03-26T19:21:57;11.60;;;1.92;;
59788;SDS011;47353;51.614;5.530;2023-03-26T19:24:24;9.88;;;2.10;;
59788;SDS011;47353;51.614;5.530;2023-03-26T19:26:50;7.63;;;2.05;;
59788;SDS011;47353;51.614;5.530;2023-03-26T19:29:23;7.53;;;1.60;;
59788;SDS011;47353;51.614;5.530;2023-03-26T19:31:52;12.32;;;2.40;;
59788;SDS011;47353;51.614;5.530;2023-03-26T19:34:38;9.45;;;1.90;;
59788;SDS011;47353;51.614;5.530;2023-03-26T19:39:43;9.43;;;2.00;;
59788;SDS011;47353;51.614;5.530;2023-03-26T19:42:14;8.38;;;2.20;;
59788;SDS011;47353;51.614;5.530;2023-03-26T19:44:44;7.03;;;1.80;;
59788;SDS011;47353;51.614;5.530;2023-03-26T19:47:14;8.43;;;1.75;;
59788;SDS011;47353;51.614;5.530;2023-03-26T19:49:47;8.23;;;1.77;;
59788;SDS011;47353;51.614;5.530;2023-03-26T19:52:14;6.63;;;1.50;;
59788;SDS011;47353;51.614;5.530;2023-03-26T19:54:54;7.00;;;1.52;;
59788;SDS011;47353;51.614;5.530;2023-03-26T19:57:31;10.32;;;1.70;;
59788;SDS011;47353;51.614;5.530;2023-03-26T20:00:00;12.68;;;1.38;;
59788;SDS011;47353;51.614;5.530;2023-03-26T20:02:28;8.95;;;2.10;;
59788;SDS011;47353;51.614;5.530;2023-03-26T20:04:53;12.63;;;1.80;;
59788;SDS011;47353;51.614;5.530;2023-03-26T20:07:20;10.75;;;1.92;;
59788;SDS011;47353;51.614;5.530;2023-03-26T20:09:51;8.98;;;1.90;;
59788;SDS011;47353;51.614;5.530;2023-03-26T20:12:17;13.00;;;1.80;;
59788;SDS011;47353;51.614;5.530;2023-03-26T20:14:43;10.00;;;1.92;;
59788;SDS011;47353;51.614;5.530;2023-03-26T20:17:13;9.30;;;2.30;;
59788;SDS011;47353;51.614;5.530;2023-03-26T20:19:41;10.70;;;2.10;;
59788;SDS011;47353;51.614;5.530;2023-03-26T20:22:18;8.52;;;2.05;;
59788;SDS011;47353;51.614;5.530;2023-03-26T20:24:47;10.25;;;2.00;;
59788;SDS011;47353;51.614;5.530;2023-03-26T20:27:14;7.95;;;2.35;;
59788;SDS011;47353;51.614;5.530;2023-03-26T20:29:40;11.75;;;2.17;;
59788;SDS011;47353;51.614;5.530;2023-03-26T20:32:19;11.68;;;1.95;;
59788;SDS011;47353;51.614;5.530;2023-03-26T20:34:46;10.55;;;1.88;;
59788;SDS011;47353;51.614;5.530;2023-03-26T20:37:14;8.70;;;1.90;;
59788;SDS011;47353;51.614;5.530;2023-03-26T20:39:42;8.10;;;1.75;;
59788;SDS011;47353;51.614;5.530;2023-03-26T20:42:09;9.30;;;2.10;;
59788;SDS011;47353;51.614;5.530;2023-03-26T20:44:36;8.35;;;1.80;;
59788;SDS011;47353;51.614;5.530;2023-03-26T20:47:01;8.07;;;1.83;;
59788;SDS011;47353;51.614;5.530;2023-03-26T20:49:27;7.57;;;1.80;;
59788;SDS011;47353;51.614;5.530;2023-03-26T20:51:53;7.70;;;1.60;;
59788;SDS011;47353;51.614;5.530;2023-03-26T20:54:24;8.00;;;1.80;;
59788;SDS011;47353;51.614;5.530;2023-03-26T20:56:50;9.68;;;1.65;;
59788;SDS011;47353;51.614;5.530;2023-03-26T20:59:21;9.57;;;2.00;;
59788;SDS011;47353;51.614;5.530;2023-03-26T21:01:50;9.13;;;1.75;;
59788;SDS011;47353;51.614;5.530;2023-03-26T21:04:16;6.60;;;1.58;;
59788;SDS011;47353;51.614;5.530;2023-03-26T21:06:43;10.45;;;1.98;;
59788;SDS011;47353;51.614;5.530;2023-03-26T21:09:11;9.32;;;2.20;;
59788;SDS011;47353;51.614;5.530;2023-03-26T21:14:35;6.22;;;1.73;;
59788;SDS011;47353;51.614;5.530;2023-03-26T21:17:05;13.63;;;2.42;;
59788;SDS011;47353;51.614;5.530;2023-03-26T21:19:36;7.72;;;1.90;;